AirNav   Everest Fuels
 
 344 users online  

53A Dr. C P Savage Sr. Airport
Montezuma, Georgia, USA

GOING TO MONTEZUMA?


FAA INFORMATION EFFECTIVE 28 FEBRUARY 2019

Location

FAA Identifier: 53A
Lat/Long: 32-18-07.2000N / 084-00-26.9000W
32-18.120000N / 084-00.448333W
32.3020000 / -84.0074722
(estimated)
Elevation: 337.1 ft. / 102.7 m (surveyed)
Variation: 04W (2005)
From city: 1 mile E of MONTEZUMA, GA
Time zone: UTC -5 (UTC -4 during Daylight Saving Time)
Zip code: 31063

Airport Operations

Airport use: Open to the public
Activation date: 09/1962
Control tower: no
ARTCC: ATLANTA CENTER
FSS: MACON FLIGHT SERVICE STATION
NOTAMs facility: MCN (NOTAM-D service available)
Attendance: UNATNDD
Wind indicator: lighted
Segmented circle: no
Lights: ACTVT MIRL RY 18/36 AND PAPI RYS 18 & 36 - CTAF.
Beacon: white-green (lighted land airport)
Operates sunset to sunrise.

Airport Communications

CTAF: 122.9
ATLANTA APPROACH: 124.2
ATLANTA DEPARTURE: 124.2
WX AWOS-3 at ACJ (15 nm SW): 128.375 (229-928-0934)
WX AWOS-3 at PXE (17 nm NE): 123.825 (478-987-8768)
  • ATLANTA LARGE TRACON PROVIDES APCH/DEP SVC 0615-2300 ON FREQ 124.2/279.6 ; ATLANTA ARTCC PROVIDES APCH/DEP SVC 2300-0615 ON FREQS 134.5/360.75 (MACON RCAG).

Nearby radio navigation aids

VOR radial/distance  VOR name  Freq  Var
VNAr281/26.4VIENNA VORTAC116.5001E
MCNr217/29.6MACON VORTAC114.2001E

 
NDB name  Hdg/Dist  Freq  Var  ID
MONTEZUMA184/3.942604WIZS .. --.. ...
LINDBERGH038/9.224204WLKG .-.. -.- --.
CONEY344/19.740006WOHY --- .... -.--

Airport Services

Parking: tiedowns
Airframe service: NONE
Powerplant service: NONE
Bottled oxygen: NONE
Bulk oxygen: NONE

Runway Information

Runway 18/36

Dimensions: 4220 x 75 ft. / 1286 x 23 m
Surface: asphalt, in good condition
Weight bearing capacity: 
Single wheel: 30.0
Runway edge lights: medium intensity
RUNWAY 18  RUNWAY 36
Latitude: 32-18.467237N32-17.771270N
Longitude: 084-00.444993W084-00.452673W
Elevation: 335.4 ft.337.1 ft.
Gradient: 0.1%0.1%
Traffic pattern: leftleft
Runway heading: 185 magnetic, 181 true005 magnetic, 001 true
Markings: nonprecision, in good conditionnonprecision, in good condition
Visual slope indicator: 2-light PAPI on left (3.30 degrees glide path)2-light PAPI on left (3.00 degrees glide path)
Touchdown point: yes, no lightsyes, no lights
Obstructions: 12 ft. tree, 248 ft. from runway, 155 ft. left of centerline, 4:1 slope to clear
20' TREES AND BRUSH 0 FT FRM RY END AND 125' L AND R OF CNTRLN.
26 ft. pole, 1240 ft. from runway, 250 ft. left of centerline, 40:1 slope to clear

Airport Ownership and Management from official FAA records

Ownership: Publicly-owned
Owner: CITY OF MONTEZUMA
CITY HALL, P.O. BOX 388
MONTEZUMA, GA 31063
Phone 478-472-8144
Manager: LARRY SMITH, MAYOR
CITY HALL, P.O. BOX 388
MONTEZUMA, GA 31063
Phone 478-472-8144

Airport Operational Statistics

Aircraft based on the field: 4
Single engine airplanes: 4
    
Aircraft operations: avg 96/week *
70% local general aviation
30% transient general aviation
* for 12-month period ending 01 December 2017

Instrument Procedures

NOTE: All procedures below are presented as PDF files. If you need a reader for these files, you should download the free Adobe Reader.

NOT FOR NAVIGATION. Please procure official charts for flight.
FAA instrument procedures published for use from 28 February 2019 at 0901Z to 28 March 2019 at 0900Z.

 
IAPs - Instrument Approach Procedures
RNAV (GPS) RWY 18   download (183KB)
RNAV (GPS) RWY 36   download (195KB)
NDB RWY 18   download (183KB)
NOTE: Special Take-Off Minimums/Departure Procedures apply   download (189KB)

Other nearby airports with instrument procedures:

KACJ - Jimmy Carter Regional Airport (15 nm SW)
KPXE - Perry-Houston County Airport (17 nm NE)
6A1 - Butler Municipal Airport (20 nm NW)
KCKF - Crisp County-Cordele Airport (22 nm SE)
KWRB - Robins Air Force Base (29 nm NE)
 
Loc | Ops | Rwys | IFR | FBO | Links
Com | Nav | Svcs | Stats | Notes
Area around 53A (Dr. C P Savage Sr. Airport)
 
Road maps at: MapQuest Bing Google
 
Aerial photo
WARNING: Photo may not be current or correct
Aerial photo of 53A (Dr. C P Savage Sr. Airport)
Do you have a better or more recent aerial photo of Dr. C P Savage Sr. Airport that you would like to share? If so, please send us your photo.

 
Sectional chart

 
Airport distance calculator
Flying to Dr. C P Savage Sr. Airport? Find the distance to fly.

From to 53A

Sunrise and sunset
Times for 22-Mar-2019
 Local
(UTC-4)
 Zulu
(UTC)
Morning civil twilight07:1411:14
Sunrise07:3811:38
Sunset19:4823:48
Evening civil twilight20:1200:12

Current date and time
Zulu (UTC)  22-Mar-2019 06:58:13
Local (UTC-4)  22-Mar-2019 02:58:13
 
METAR
KACJ 
15nm SW 
220635Z AUTO 30005KT 10SM CLR 12/03 A3002 RMK AO2
KPXE 
17nm NE 
220635Z AUTO 29006KT 10SM CLR 09/03 A2998 RMK AO2 T00930027
KCKF 
22nm SE 
220635Z AUTO 28006KT 10SM CLR 10/02 A3001 RMK AO2 T00960023
KWRB 
29nm NE 
220556Z AUTO 28008KT 10SM CLR 12/02 A2997 RMK AO2 SLP151 T01150022 10142 20113 53007
KMCN 
29nm NE 
220653Z AUTO 28006KT 10SM CLR 07/02 A2998 RMK AO2 SLP151 T00720022
TAF
KWRB 
29nm NE 
220500Z 2205/2311 33009KT 9999 SKC 510102 QNH2995INS BECMG 2215/2216 30010G16KT 9999 SKC QNH3012INS TEMPO 2218/2221 28012G20KT BECMG 2221/2222 27009KT 9999 SKC QNH3001INS TX17/2220Z TN05/2211Z
KMCN 
29nm NE 
220520Z 2206/2306 31007KT P6SM SKC FM221800 29011G21KT P6SM SKC FM222300 29007KT P6SM SKC
NOTAMs
Click for the latest NOTAMs
NOTAMs are issued by the DoD/FAA and will open in a separate window not controlled by AirNav.

 

 
 

Would you like to see your business listed on this page?

 If your business provides an interesting product or service to pilots, flight crews, aircraft, or users of the Dr. C P Savage Sr. Airport, you should consider listing it here.  To start the listing process, click on the button below
 
Add a business
 

Other Pages about Dr. C P Savage Sr. Airport

Update a link
 
Copyright © AirNav, LLC. All rights reserved. Privacy Policy  Contact